Time;durP1;ratioP1;P1;durP2;ratioP2;P2;SDS_P1;SDS_P2;PMS_P1;PMS_P2;Temp;Humidity;BMP_temperature;BMP_pressure;BME280_temperature;BME280_humidity;BME280_pressure;Samples;Min_cycle;Max_cycle;Signal;HPM_P1;HPM_P2
2023/06/12 00:01:05;;;;;;;3.50;3.30;;;22.60;61.20;;;;;;5014365;28;20195;-67
2023/06/12 00:03:31;;;;;;;3.85;3.65;;;22.60;61.20;;;;;;5000132;28;20256;-67
2023/06/12 00:05:59;;;;;;;3.60;3.40;;;22.60;61.20;;;;;;5011282;28;20211;-67
2023/06/12 00:08:29;;;;;;;3.40;3.20;;;22.60;61.20;;;;;;5012367;28;20228;-67
2023/06/12 00:10:56;;;;;;;3.90;3.65;;;22.60;61.20;;;;;;5010912;28;20314;-67
2023/06/12 00:13:22;;;;;;;3.72;3.42;;;22.60;61.10;;;;;;5019259;28;20188;-67
2023/06/12 00:15:48;;;;;;;3.67;3.47;;;22.60;61.20;;;;;;5042220;28;20196;-67
2023/06/12 00:18:14;;;;;;;4.07;3.78;;;22.60;61.20;;;;;;5022932;28;20643;-67
2023/06/12 00:20:40;;;;;;;3.85;3.55;;;22.60;61.20;;;;;;5014438;28;20198;-67
2023/06/12 00:23:06;;;;;;;3.47;3.22;;;22.60;61.20;;;;;;5027906;28;20192;-66
2023/06/12 00:25:33;;;;;;;3.35;3.15;;;22.60;61.10;;;;;;5002792;28;20219;-67
2023/06/12 00:27:58;;;;;;;3.47;3.17;;;22.60;61.20;;;;;;5005079;28;20199;-67
2023/06/12 00:30:24;;;;;;;3.55;3.35;;;22.60;61.10;;;;;;5008969;28;20203;-66
2023/06/12 00:32:50;;;;;;;3.80;3.50;;;22.60;61.20;;;;;;5027337;28;20210;-67
2023/06/12 00:35:18;;;;;;;3.95;3.65;;;22.60;61.40;;;;;;5003033;28;20188;-66
2023/06/12 00:37:48;;;;;;;4.07;3.67;;;22.60;61.30;;;;;;5027221;28;20221;-67
2023/06/12 00:40:15;;;;;;;3.90;3.53;;;22.60;61.40;;;;;;5014279;28;20199;-66
2023/06/12 00:42:50;;;;;;;3.60;3.30;;;22.60;61.40;;;;;;5022459;28;20273;-67
2023/06/12 00:45:19;;;;;;;3.58;3.38;;;22.60;61.30;;;;;;5023202;28;20613;-67
2023/06/12 00:47:56;;;;;;;3.85;3.55;;;22.60;61.30;;;;;;5006239;28;20223;-66
2023/06/12 00:50:28;;;;;;;3.55;3.35;;;22.60;61.30;;;;;;5011892;28;20219;-67
2023/06/12 00:52:59;;;;;;;3.75;3.45;;;22.50;61.30;;;;;;5012244;28;20188;-67
2023/06/12 00:55:30;;;;;;;3.22;3.03;;;22.50;61.20;;;;;;5008977;28;20192;-67
2023/06/12 00:57:56;;;;;;;3.85;3.55;;;22.50;61.10;;;;;;5041821;28;20197;-67
2023/06/12 01:00:22;;;;;;;3.47;3.28;;;22.60;61.30;;;;;;5007611;28;20218;-67
2023/06/12 01:02:55;;;;;;;4.15;3.45;;;22.50;61.20;;;;;;5014203;28;20184;-67
2023/06/12 01:05:32;;;;;;;3.40;3.20;;;22.60;61.40;;;;;;5027189;28;20215;-66
2023/06/12 01:08:48;;;;;;;3.95;3.65;;;22.50;61.20;;;;;;4998110;28;20194;-66
2023/06/12 01:11:17;;;;;;;3.67;3.38;;;22.50;61.30;;;;;;5026549;28;20276;-67
2023/06/12 01:13:43;;;;;;;3.85;3.55;;;22.50;61.30;;;;;;5002032;28;20319;-67
2023/06/12 01:16:09;;;;;;;3.92;3.63;;;22.50;61.20;;;;;;5030598;28;20572;-67
2023/06/12 01:18:35;;;;;;;3.58;3.30;;;22.50;61.30;;;;;;5012816;28;20213;-67
2023/06/12 01:21:12;;;;;;;3.78;3.47;;;22.50;61.30;;;;;;5042079;28;20188;-66
2023/06/12 01:24:08;;;;;;;4.10;3.80;;;22.50;61.30;;;;;;5026899;28;20571;-66
2023/06/12 01:27:13;;;;;;;3.83;3.60;;;22.50;61.30;;;;;;5000340;28;20244;-66
2023/06/12 01:29:52;;;;;;;3.38;3.17;;;22.50;61.30;;;;;;5025047;28;20219;-66
2023/06/12 01:32:20;;;;;;;3.55;3.35;;;22.50;61.30;;;;;;5010169;28;20183;-66
2023/06/12 01:34:57;;;;;;;3.50;3.20;;;22.50;61.30;;;;;;5017356;28;20191;-66
2023/06/12 01:37:49;;;;;;;3.83;3.53;;;22.50;61.30;;;;;;5021887;28;20216;-66
2023/06/12 01:40:28;;;;;;;3.50;3.30;;;22.50;61.30;;;;;;5021991;28;20216;-70
2023/06/12 01:42:54;;;;;;;4.10;3.80;;;22.50;61.40;;;;;;5019582;28;20196;-66
2023/06/12 01:45:20;;;;;;;4.25;3.95;;;22.50;61.30;;;;;;4997691;28;20199;-66
2023/06/12 01:47:46;;;;;;;3.78;3.47;;;22.60;61.40;;;;;;5018275;28;20184;-66
2023/06/12 01:50:16;;;;;;;3.25;3.05;;;22.50;61.30;;;;;;5021591;28;20699;-66
2023/06/12 01:52:44;;;;;;;4.10;3.70;;;22.50;61.30;;;;;;5009631;28;20196;-65
2023/06/12 01:55:10;;;;;;;4.10;3.80;;;22.50;61.30;;;;;;5038360;28;20191;-65
2023/06/12 01:57:38;;;;;;;4.05;3.75;;;22.50;61.30;;;;;;5021627;28;20207;-66
2023/06/12 02:00:05;;;;;;;3.83;3.53;;;22.50;61.30;;;;;;5007164;28;20215;-66
2023/06/12 02:02:46;;;;;;;3.85;3.60;;;22.50;61.30;;;;;;5039791;28;20195;-66
2023/06/12 02:05:13;;;;;;;3.70;3.40;;;22.50;61.40;;;;;;5021305;28;20239;-66
2023/06/12 02:07:40;;;;;;;3.60;3.30;;;22.50;61.30;;;;;;5005379;28;20227;-66
2023/06/12 02:10:07;;;;;;;4.10;3.80;;;22.50;61.40;;;;;;5023642;28;20215;-66
2023/06/12 02:12:34;;;;;;;3.80;3.50;;;22.50;61.40;;;;;;5024788;28;20192;-66
2023/06/12 02:15:01;;;;;;;3.95;3.65;;;22.50;61.30;;;;;;5030997;28;20235;-66
2023/06/12 02:17:28;;;;;;;3.75;3.55;;;22.50;61.40;;;;;;5027769;28;20200;-66
2023/06/12 02:19:56;;;;;;;3.97;3.67;;;22.50;61.40;;;;;;5029397;28;20235;-66
2023/06/12 02:22:22;;;;;;;3.92;3.42;;;22.50;61.40;;;;;;5020334;28;20192;-66
2023/06/12 02:24:48;;;;;;;3.85;3.58;;;22.50;61.40;;;;;;5004994;28;20184;-66
2023/06/12 02:27:14;;;;;;;3.30;3.10;;;22.50;61.40;;;;;;5028988;28;20211;-66
2023/06/12 02:29:40;;;;;;;4.03;3.72;;;22.40;61.30;;;;;;5017181;28;20567;-65
2023/06/12 02:32:06;;;;;;;3.88;3.58;;;22.50;61.40;;;;;;5030466;28;20215;-66
2023/06/12 02:34:33;;;;;;;3.58;3.38;;;22.50;61.40;;;;;;5018547;28;20183;-65
2023/06/12 02:36:59;;;;;;;4.35;4.00;;;22.50;61.40;;;;;;5024273;28;20198;-66
2023/06/12 02:39:27;;;;;;;3.83;3.53;;;22.50;61.50;;;;;;5032638;28;20199;-65
2023/06/12 02:41:53;;;;;;;3.95;3.65;;;22.50;61.50;;;;;;5007865;28;20211;-66
2023/06/12 02:44:19;;;;;;;4.00;3.60;;;22.50;61.50;;;;;;5016011;28;20195;-66
2023/06/12 02:46:56;;;;;;;3.92;3.60;;;22.50;61.50;;;;;;5004730;28;20212;-66
2023/06/12 02:49:28;;;;;;;3.65;3.45;;;22.50;61.50;;;;;;5020932;28;20212;-66
2023/06/12 02:51:54;;;;;;;4.22;3.92;;;22.40;61.30;;;;;;5037149;28;20188;-66
2023/06/12 02:54:23;;;;;;;3.65;3.38;;;22.50;61.50;;;;;;5040112;28;20225;-66
2023/06/12 02:56:49;;;;;;;4.13;3.80;;;22.40;61.40;;;;;;5032183;28;20183;-65
2023/06/12 02:59:18;;;;;;;4.15;3.80;;;22.40;61.40;;;;;;5004080;28;20204;-66
2023/06/12 03:01:44;;;;;;;3.83;3.53;;;22.40;61.40;;;;;;5020738;28;20219;-66
2023/06/12 03:04:20;;;;;;;3.90;3.47;;;22.50;61.50;;;;;;5045393;28;20184;-65
2023/06/12 03:06:48;;;;;;;4.15;3.85;;;22.40;61.40;;;;;;5003071;28;20219;-66
2023/06/12 03:09:17;;;;;;;4.20;3.80;;;22.40;61.50;;;;;;5032085;28;20210;-66
2023/06/12 03:11:43;;;;;;;4.03;3.72;;;22.40;61.50;;;;;;5031725;28;20187;-66
2023/06/12 03:14:09;;;;;;;4.10;3.80;;;22.40;61.50;;;;;;5029654;28;20651;-66
2023/06/12 03:16:36;;;;;;;3.40;3.20;;;22.40;61.50;;;;;;5004196;28;20282;-66
2023/06/12 03:19:02;;;;;;;4.10;3.80;;;22.40;61.40;;;;;;5012245;28;20216;-66
2023/06/12 03:21:28;;;;;;;3.58;3.38;;;22.40;61.50;;;;;;5011974;28;20190;-66
2023/06/12 03:23:53;;;;;;;4.10;3.80;;;22.40;61.40;;;;;;5028421;28;20655;-66
2023/06/12 03:26:20;;;;;;;3.90;3.50;;;22.40;61.50;;;;;;5007269;28;20207;-66
2023/06/12 03:28:46;;;;;;;3.95;3.65;;;22.40;61.50;;;;;;5024565;28;20204;-66
2023/06/12 03:31:12;;;;;;;3.70;3.40;;;22.40;61.50;;;;;;5019095;28;20797;-66
2023/06/12 03:33:38;;;;;;;3.97;3.60;;;22.40;61.50;;;;;;5003644;28;20187;-66
2023/06/12 03:36:08;;;;;;;3.83;3.58;;;22.40;61.50;;;;;;5012593;28;20226;-66
2023/06/12 03:38:34;;;;;;;3.92;3.63;;;22.40;61.50;;;;;;5006366;28;20219;-66
2023/06/12 03:41:00;;;;;;;4.10;3.80;;;22.40;61.50;;;;;;5023282;28;20245;-65
2023/06/12 03:43:25;;;;;;;4.38;4.07;;;22.40;61.50;;;;;;5002741;28;20184;-65
2023/06/12 03:45:51;;;;;;;3.92;3.63;;;22.40;61.60;;;;;;5003177;28;20212;-66
2023/06/12 03:48:18;;;;;;;3.85;3.55;;;22.40;61.50;;;;;;5022610;28;20732;-66
2023/06/12 03:50:43;;;;;;;3.90;3.60;;;22.40;61.60;;;;;;5014498;28;20225;-66
2023/06/12 03:53:09;;;;;;;4.20;3.90;;;22.40;62.40;;;;;;5013671;28;20192;-66
2023/06/12 03:55:36;;;;;;;3.83;3.53;;;22.40;61.60;;;;;;5014741;28;20195;-66
2023/06/12 03:58:02;;;;;;;4.10;3.80;;;22.40;61.60;;;;;;5031137;28;20218;-65
2023/06/12 04:00:28;;;;;;;4.40;4.10;;;22.40;61.70;;;;;;5022975;28;20695;-66
2023/06/12 04:02:54;;;;;;;3.92;3.72;;;22.40;61.70;;;;;;4998823;28;20578;-66
2023/06/12 04:05:21;;;;;;;4.00;3.70;;;22.40;61.70;;;;;;5011226;28;20198;-66
2023/06/12 04:07:47;;;;;;;3.83;3.53;;;22.40;61.70;;;;;;5006666;28;20191;-66
2023/06/12 04:10:13;;;;;;;3.58;3.38;;;22.40;61.70;;;;;;5026840;28;20299;-66
2023/06/12 04:12:39;;;;;;;4.18;3.88;;;22.40;61.70;;;;;;4995049;28;20192;-66
2023/06/12 04:15:06;;;;;;;3.80;3.50;;;22.40;61.70;;;;;;5011443;28;20192;-65
2023/06/12 04:17:32;;;;;;;3.55;3.35;;;22.40;61.70;;;;;;5011621;28;20203;-65
2023/06/12 04:20:00;;;;;;;4.32;4.03;;;22.40;61.70;;;;;;5011093;28;20208;-65
2023/06/12 04:22:27;;;;;;;4.28;3.88;;;22.40;61.70;;;;;;4998864;28;20226;-65
2023/06/12 04:24:54;;;;;;;3.60;3.40;;;22.40;61.70;;;;;;5027709;28;20199;-65
2023/06/12 04:27:20;;;;;;;4.03;3.65;;;22.40;61.80;;;;;;5011301;28;20216;-65
2023/06/12 04:29:46;;;;;;;4.00;3.70;;;22.40;61.70;;;;;;5011526;28;20210;-66
2023/06/12 04:32:13;;;;;;;3.97;3.67;;;22.40;61.80;;;;;;5013541;28;20693;-66
2023/06/12 04:34:41;;;;;;;4.38;4.07;;;22.30;61.70;;;;;;5041832;28;20290;-65
2023/06/12 04:37:13;;;;;;;3.88;3.58;;;22.40;61.80;;;;;;4994845;28;20187;-66
2023/06/12 04:39:40;;;;;;;4.00;3.70;;;22.40;61.80;;;;;;5000214;28;20238;-65
2023/06/12 04:42:08;;;;;;;4.10;3.80;;;22.40;61.80;;;;;;5014889;28;20203;-65
2023/06/12 04:44:39;;;;;;;4.35;4.05;;;22.40;61.80;;;;;;5018624;28;20191;-65
2023/06/12 04:47:10;;;;;;;4.40;4.10;;;22.40;61.70;;;;;;5034658;28;20207;-65
2023/06/12 04:49:43;;;;;;;4.18;3.88;;;22.40;61.70;;;;;;5046410;28;20367;-65
2023/06/12 04:52:09;;;;;;;3.78;3.47;;;22.40;61.70;;;;;;4998442;28;20196;-65
2023/06/12 04:54:41;;;;;;;4.10;3.72;;;22.40;61.60;;;;;;4998725;28;20192;-65
2023/06/12 04:57:16;;;;;;;4.18;3.88;;;22.40;61.60;;;;;;5007775;28;20198;-65
2023/06/12 04:59:44;;;;;;;4.07;3.88;;;22.40;61.60;;;;;;5051119;28;20230;-65
2023/06/12 05:02:12;;;;;;;4.25;3.95;;;22.40;61.70;;;;;;5016243;28;20183;-65
2023/06/12 05:04:41;;;;;;;4.43;4.13;;;22.40;61.60;;;;;;5029358;28;20286;-65
2023/06/12 05:07:17;;;;;;;4.35;4.05;;;22.40;61.60;;;;;;4999241;28;20218;-65
2023/06/12 05:09:46;;;;;;;4.45;4.15;;;22.40;61.60;;;;;;5028771;28;20207;-65
2023/06/12 05:12:12;;;;;;;4.40;4.10;;;22.40;61.70;;;;;;5016006;28;20679;-65
2023/06/12 05:14:40;;;;;;;4.32;4.03;;;22.40;61.70;;;;;;5009737;28;20191;-65
2023/06/12 05:17:07;;;;;;;4.30;4.00;;;22.40;61.70;;;;;;5014322;28;20246;-65
2023/06/12 05:19:33;;;;;;;4.30;4.00;;;22.40;62.50;;;;;;5010245;28;20203;-65
2023/06/12 05:21:59;;;;;;;3.83;3.53;;;22.40;61.70;;;;;;5042303;28;20206;-65
2023/06/12 05:24:26;;;;;;;4.40;4.10;;;22.40;61.70;;;;;;5038941;28;20253;-64
2023/06/12 05:26:52;;;;;;;4.05;3.75;;;22.40;61.70;;;;;;5017829;28;20261;-65
2023/06/12 05:29:18;;;;;;;4.30;4.00;;;22.40;61.70;;;;;;5007216;28;20305;-65
2023/06/12 05:31:44;;;;;;;4.15;3.85;;;22.40;61.70;;;;;;5011538;28;20187;-65
2023/06/12 05:34:10;;;;;;;4.35;3.95;;;22.40;61.70;;;;;;5030060;28;20230;-64
2023/06/12 05:36:36;;;;;;;4.30;4.00;;;22.40;61.70;;;;;;5010321;28;20278;-64
2023/06/12 05:39:04;;;;;;;4.70;4.30;;;22.40;61.70;;;;;;5030391;28;20246;-65
2023/06/12 05:41:31;;;;;;;4.22;3.92;;;22.40;61.70;;;;;;4997528;28;20199;-65
2023/06/12 05:43:58;;;;;;;3.97;3.67;;;22.40;61.70;;;;;;5024551;28;20319;-65
2023/06/12 05:46:24;;;;;;;4.22;3.92;;;22.40;61.70;;;;;;5029606;28;20224;-65
2023/06/12 05:48:50;;;;;;;4.10;3.80;;;22.40;61.70;;;;;;5028071;28;20214;-65
2023/06/12 05:51:16;;;;;;;4.10;3.80;;;22.40;61.70;;;;;;5029789;28;20279;-65
2023/06/12 05:53:47;;;;;;;4.57;4.18;;;22.40;61.70;;;;;;5026946;28;20682;-65
2023/06/12 05:56:14;;;;;;;4.50;4.20;;;22.40;61.70;;;;;;5041438;28;20270;-65
2023/06/12 05:58:43;;;;;;;4.40;4.10;;;22.40;61.80;;;;;;5008726;28;20222;-65
2023/06/12 06:01:11;;;;;;;4.65;4.30;;;22.40;61.70;;;;;;5008613;28;20203;-65
2023/06/12 06:03:50;;;;;;;4.55;4.18;;;22.40;61.80;;;;;;5025100;28;20281;-65
2023/06/12 06:06:17;;;;;;;4.22;3.92;;;22.40;61.80;;;;;;5006947;28;20299;-65
2023/06/12 06:08:43;;;;;;;4.10;3.78;;;22.40;61.80;;;;;;4997043;28;20206;-66
2023/06/12 06:11:09;;;;;;;4.72;4.32;;;22.40;61.80;;;;;;5013870;28;20190;-65
2023/06/12 06:13:35;;;;;;;4.18;3.88;;;22.40;61.80;;;;;;5033295;28;20187;-65
2023/06/12 06:16:02;;;;;;;4.50;4.20;;;22.40;61.70;;;;;;5016514;28;20191;-65
2023/06/12 06:18:29;;;;;;;4.50;4.10;;;22.40;62.50;;;;;;5008707;28;20239;-65
2023/06/12 06:20:56;;;;;;;4.43;4.13;;;22.40;61.80;;;;;;5024504;28;20191;-65
2023/06/12 06:23:22;;;;;;;4.65;4.25;;;22.40;61.80;;;;;;5022287;28;20258;-65
2023/06/12 06:25:48;;;;;;;4.72;4.32;;;22.40;61.90;;;;;;4996970;28;20299;-65
2023/06/12 06:28:15;;;;;;;4.15;3.80;;;22.40;62.70;;;;;;5029520;28;20206;-65
2023/06/12 06:30:41;;;;;;;4.50;4.15;;;22.40;61.80;;;;;;5025698;28;20278;-65
2023/06/12 06:33:07;;;;;;;3.97;3.67;;;22.40;61.80;;;;;;5024474;28;20282;-65
2023/06/12 06:35:33;;;;;;;4.85;4.45;;;22.40;61.90;;;;;;5032701;28;20233;-65
2023/06/12 06:37:58;;;;;;;4.47;4.18;;;22.40;61.90;;;;;;5029634;28;20192;-64
2023/06/12 06:40:25;;;;;;;4.90;4.50;;;22.40;61.80;;;;;;5012933;28;20204;-65
2023/06/12 06:42:52;;;;;;;4.72;4.40;;;22.40;61.90;;;;;;5012804;28;20180;-65
2023/06/12 06:45:22;;;;;;;4.18;3.88;;;22.40;61.90;;;;;;5030360;28;20195;-65
2023/06/12 06:47:49;;;;;;;4.55;4.22;;;22.40;61.80;;;;;;5010527;28;20215;-65
2023/06/12 06:50:18;;;;;;;4.60;4.30;;;22.40;61.90;;;;;;4996390;28;20258;-65
2023/06/12 06:52:45;;;;;;;4.55;4.25;;;22.40;61.90;;;;;;5026305;28;20191;-65
2023/06/12 06:55:12;;;;;;;4.10;3.80;;;22.40;61.80;;;;;;5040642;28;20187;-65
2023/06/12 06:57:39;;;;;;;4.25;3.95;;;22.40;61.80;;;;;;5019625;28;20663;-65
2023/06/12 07:00:06;;;;;;;4.18;3.88;;;22.40;61.80;;;;;;5028520;28;20226;-65
2023/06/12 07:02:33;;;;;;;4.70;4.38;;;22.40;61.80;;;;;;5045211;28;20200;-65
2023/06/12 07:05:00;;;;;;;4.40;4.10;;;22.40;61.90;;;;;;5003482;28;20218;-65
2023/06/12 07:07:26;;;;;;;4.68;4.38;;;22.40;61.90;;;;;;5031302;28;20204;-64
2023/06/12 07:09:52;;;;;;;4.72;4.35;;;22.50;62.00;;;;;;5015495;28;20215;-65
2023/06/12 07:12:20;;;;;;;4.68;4.35;;;22.40;61.80;;;;;;5015723;28;20184;-65
2023/06/12 07:14:45;;;;;;;4.68;4.35;;;22.50;62.00;;;;;;5010284;28;20188;-65
2023/06/12 07:17:15;;;;;;;4.13;3.85;;;22.40;61.90;;;;;;5011150;28;20188;-65
2023/06/12 07:19:42;;;;;;;4.22;3.92;;;22.40;61.90;;;;;;5015402;28;20294;-65
2023/06/12 07:22:08;;;;;;;4.63;4.22;;;22.40;61.90;;;;;;5028706;28;20192;-65
2023/06/12 07:24:34;;;;;;;4.53;4.22;;;22.50;62.00;;;;;;5023915;28;20210;-65
2023/06/12 07:27:00;;;;;;;5.22;4.82;;;22.40;61.90;;;;;;5039962;28;20219;-65
2023/06/12 07:29:27;;;;;;;4.53;4.22;;;22.50;62.00;;;;;;5012666;28;20199;-65
2023/06/12 07:31:53;;;;;;;4.40;4.10;;;22.50;62.00;;;;;;5025961;28;20187;-65
2023/06/12 07:34:19;;;;;;;4.90;4.55;;;22.50;62.00;;;;;;5047688;28;20191;-65
2023/06/12 07:36:46;;;;;;;4.88;4.47;;;22.50;62.00;;;;;;5028116;28;20203;-65
2023/06/12 07:39:12;;;;;;;5.55;4.63;;;22.50;62.00;;;;;;5008281;28;20215;-65
2023/06/12 07:41:39;;;;;;;4.90;4.60;;;22.50;62.00;;;;;;5043993;28;20195;-65
2023/06/12 07:44:10;;;;;;;5.05;4.60;;;22.50;62.00;;;;;;5019321;28;20195;-65
2023/06/12 07:46:37;;;;;;;4.60;4.30;;;22.50;62.00;;;;;;5007408;28;20302;-65
2023/06/12 07:49:03;;;;;;;4.97;4.65;;;22.50;62.00;;;;;;5011728;28;20208;-65
2023/06/12 07:51:29;;;;;;;5.20;4.78;;;22.50;62.00;;;;;;5019967;28;20184;-65
2023/06/12 07:53:55;;;;;;;4.85;4.45;;;22.50;62.00;;;;;;4995354;28;20203;-64
2023/06/12 07:56:22;;;;;;;4.68;4.38;;;22.50;61.90;;;;;;5029538;28;20241;-65
2023/06/12 07:58:52;;;;;;;4.80;4.50;;;22.50;62.00;;;;;;5033670;28;20216;-65
2023/06/12 08:01:18;;;;;;;5.38;4.68;;;22.50;61.90;;;;;;5014768;28;20187;-65
2023/06/12 08:03:45;;;;;;;4.88;4.57;;;22.50;61.90;;;;;;5027775;28;20211;-63
2023/06/12 08:06:15;;;;;;;4.90;4.50;;;22.50;61.90;;;;;;4995243;28;20219;-65
2023/06/12 08:08:47;;;;;;;4.78;4.40;;;22.50;61.90;;;;;;5004651;28;20220;-65
2023/06/12 08:11:14;;;;;;;5.10;4.70;;;22.50;61.90;;;;;;4995190;28;20199;-65
2023/06/12 08:13:43;;;;;;;4.95;4.65;;;22.60;61.90;;;;;;5044187;28;20275;-65
2023/06/12 08:16:09;;;;;;;4.93;4.53;;;22.60;61.90;;;;;;5011305;28;20200;-65
2023/06/12 08:18:36;;;;;;;5.10;4.60;;;22.60;62.00;;;;;;4998126;28;20227;-65
2023/06/12 08:21:02;;;;;;;4.60;4.30;;;22.60;61.80;;;;;;5007452;28;20266;-65
2023/06/12 08:23:28;;;;;;;5.00;4.60;;;22.60;61.70;;;;;;5003291;28;20195;-65
2023/06/12 08:25:56;;;;;;;4.68;4.35;;;22.60;61.70;;;;;;5015043;28;20225;-65
2023/06/12 08:28:22;;;;;;;4.28;3.97;;;22.60;61.60;;;;;;4998036;28;20196;-65
2023/06/12 08:30:50;;;;;;;6.82;4.30;;;22.60;61.60;;;;;;5027342;28;20192;-65
2023/06/12 08:33:16;;;;;;;5.07;4.68;;;22.60;61.60;;;;;;5020141;28;20229;-65
2023/06/12 08:35:43;;;;;;;4.50;4.20;;;22.60;61.40;;;;;;5027640;28;20192;-65
2023/06/12 08:38:09;;;;;;;4.68;4.28;;;22.60;61.40;;;;;;4995132;28;20192;-65
2023/06/12 08:40:35;;;;;;;4.55;4.25;;;22.60;61.40;;;;;;5030257;28;20257;-64
2023/06/12 08:43:01;;;;;;;4.55;4.20;;;22.70;61.50;;;;;;5039533;28;20230;-65
2023/06/12 08:45:29;;;;;;;4.68;4.28;;;22.70;61.40;;;;;;5031870;28;20244;-64
2023/06/12 08:47:56;;;;;;;4.82;4.43;;;22.60;61.20;;;;;;5020554;28;20213;-65
2023/06/12 08:50:23;;;;;;;4.85;4.47;;;22.70;61.40;;;;;;5029554;28;20257;-65
2023/06/12 08:52:51;;;;;;;5.07;4.68;;;22.70;61.50;;;;;;5007719;28;20271;-65
2023/06/12 08:55:20;;;;;;;4.65;4.35;;;22.70;61.60;;;;;;5039686;28;20188;-65
2023/06/12 08:57:47;;;;;;;5.10;4.70;;;22.70;61.40;;;;;;5014398;28;20203;-65
2023/06/12 09:00:14;;;;;;;4.20;3.90;;;22.70;61.30;;;;;;4998195;28;20223;-65
2023/06/12 09:02:46;;;;;;;4.65;4.25;;;22.70;61.20;;;;;;5022525;28;20195;-65
2023/06/12 09:05:19;;;;;;;5.00;4.60;;;22.70;61.30;;;;;;5030750;28;20249;-65
2023/06/12 09:07:47;;;;;;;4.82;4.45;;;22.70;61.30;;;;;;5001626;28;20234;-65
2023/06/12 09:10:14;;;;;;;4.63;4.32;;;22.70;61.20;;;;;;5028122;28;20585;-65
2023/06/12 09:12:43;;;;;;;4.47;4.18;;;22.70;61.40;;;;;;5010978;28;20594;-65
2023/06/12 09:15:18;;;;;;;4.55;4.25;;;22.80;61.30;;;;;;5022999;28;20207;-65
2023/06/12 09:17:49;;;;;;;4.43;4.10;;;22.70;61.10;;;;;;5027965;28;20223;-65
2023/06/12 09:20:28;;;;;;;4.15;3.85;;;22.80;61.30;;;;;;5013827;28;20248;-65
2023/06/12 09:22:56;;;;;;;4.38;4.07;;;22.70;61.20;;;;;;5047180;28;20179;-65
2023/06/12 09:25:33;;;;;;;4.47;4.18;;;22.80;61.40;;;;;;5044354;28;20242;-65
2023/06/12 09:27:59;;;;;;;4.57;4.20;;;22.80;61.30;;;;;;5016370;28;20191;-65
2023/06/12 09:30:25;;;;;;;5.00;4.63;;;22.80;61.30;;;;;;5030512;28;20211;-65
2023/06/12 09:32:52;;;;;;;4.35;4.05;;;22.70;61.30;;;;;;5032613;28;20197;-65
2023/06/12 09:35:17;;;;;;;4.30;4.00;;;22.70;61.50;;;;;;5033904;28;20222;-64
2023/06/12 09:37:43;;;;;;;4.30;4.00;;;22.70;61.50;;;;;;5033804;28;20230;-65
2023/06/12 09:40:14;;;;;;;4.20;3.90;;;22.70;61.40;;;;;;5041706;28;20214;-64
2023/06/12 09:42:42;;;;;;;4.68;4.28;;;22.70;61.50;;;;;;5030442;28;20200;-64
2023/06/12 09:45:20;;;;;;;4.60;4.30;;;22.70;61.30;;;;;;5004633;28;20286;-64
2023/06/12 09:47:51;;;;;;;4.50;4.10;;;22.70;61.00;;;;;;5041913;28;20207;-65
2023/06/12 09:50:19;;;;;;;4.28;3.97;;;22.80;61.10;;;;;;5016922;28;20212;-65
2023/06/12 09:52:46;;;;;;;4.40;4.10;;;22.80;60.80;;;;;;5030685;28;20168;-65
2023/06/12 09:55:16;;;;;;;4.65;4.28;;;22.80;60.90;;;;;;5024108;28;20194;-64
2023/06/12 09:57:48;;;;;;;4.22;3.92;;;22.70;60.90;;;;;;5033522;28;20223;-64
2023/06/12 10:00:16;;;;;;;4.65;4.32;;;22.70;62.00;;;;;;5016893;28;20246;-65
2023/06/12 10:03:00;;;;;;;4.18;3.88;;;22.70;61.00;;;;;;5041574;28;20186;-64
2023/06/12 10:05:42;;;;;;;4.88;4.38;;;22.70;61.00;;;;;;5025184;28;20567;-65
2023/06/12 10:08:09;;;;;;;4.30;4.00;;;22.70;61.00;;;;;;5018083;28;20223;-65
2023/06/12 10:10:36;;;;;;;4.63;4.30;;;22.70;61.10;;;;;;5014401;28;20717;-65
2023/06/12 10:13:03;;;;;;;4.57;3.90;;;22.80;61.10;;;;;;5027489;28;20241;-65
2023/06/12 10:15:31;;;;;;;4.45;3.97;;;22.70;61.00;;;;;;5048336;28;20199;-65
2023/06/12 10:17:58;;;;;;;4.68;4.28;;;22.70;61.00;;;;;;5033253;28;20170;-65
2023/06/12 10:20:26;;;;;;;4.35;4.05;;;22.80;60.90;;;;;;4999698;28;20300;-64
2023/06/12 10:22:54;;;;;;;4.40;4.10;;;22.70;60.80;;;;;;5001403;28;20195;-64
2023/06/12 10:25:21;;;;;;;4.07;3.78;;;22.80;60.90;;;;;;5008067;28;20207;-65
2023/06/12 10:27:48;;;;;;;4.72;4.43;;;22.80;60.70;;;;;;4996684;28;20257;-64
2023/06/12 10:30:17;;;;;;;4.22;3.92;;;22.80;60.80;;;;;;5028472;28;20928;-65
2023/06/12 10:32:45;;;;;;;4.35;3.92;;;22.80;60.90;;;;;;5025722;28;20184;-65
2023/06/12 10:35:12;;;;;;;4.47;4.18;;;22.80;60.70;;;;;;5024540;28;20278;-65
2023/06/12 10:37:47;;;;;;;4.43;4.03;;;22.80;60.80;;;;;;5024322;28;20192;-65
2023/06/12 10:40:19;;;;;;;4.85;4.32;;;22.80;61.00;;;;;;5032307;28;20587;-65
2023/06/12 10:42:51;;;;;;;4.20;3.90;;;22.80;60.90;;;;;;5024769;28;20199;-65
2023/06/12 10:45:36;;;;;;;5.00;4.60;;;22.80;60.80;;;;;;5008974;28;20250;-65
2023/06/12 10:48:05;;;;;;;4.68;4.07;;;22.80;60.80;;;;;;5018410;28;20200;-65
2023/06/12 10:50:47;;;;;;;4.57;4.18;;;22.80;60.80;;;;;;5033424;28;20214;-65
2023/06/12 10:53:31;;;;;;;4.30;4.00;;;22.80;60.70;;;;;;5033936;28;20200;-65
2023/06/12 10:56:07;;;;;;;4.40;4.00;;;22.80;60.50;;;;;;4996303;28;20184;-65
2023/06/12 10:58:38;;;;;;;4.97;4.60;;;22.80;60.40;;;;;;5019108;28;20227;-65
2023/06/12 11:01:14;;;;;;;4.90;4.50;;;22.80;60.60;;;;;;5022776;28;20184;-65
2023/06/12 11:03:42;;;;;;;4.32;3.92;;;22.80;60.70;;;;;;5012399;28;20659;-64
2023/06/12 11:06:13;;;;;;;4.50;4.10;;;22.80;60.80;;;;;;5028162;28;20243;-65
2023/06/12 11:08:44;;;;;;;4.60;4.20;;;22.80;60.60;;;;;;5015103;28;20331;-66
2023/06/12 11:11:11;;;;;;;4.43;4.13;;;22.80;60.80;;;;;;5036058;28;20187;-65
2023/06/12 11:13:43;;;;;;;4.70;4.30;;;22.80;60.60;;;;;;5014517;28;20195;-66
2023/06/12 11:16:21;;;;;;;4.95;4.55;;;22.80;60.40;;;;;;5023502;28;20199;-66
2023/06/12 11:19:02;;;;;;;5.45;4.55;;;22.80;60.70;;;;;;5020118;28;20208;-65
2023/06/12 11:21:29;;;;;;;4.72;4.32;;;22.80;60.30;;;;;;5036723;28;20187;-66
2023/06/12 11:23:56;;;;;;;5.00;4.60;;;22.80;60.30;;;;;;5019554;28;20707;-66
2023/06/12 11:26:21;;;;;;;5.20;4.78;;;22.80;60.30;;;;;;5006975;28;20207;-65
2023/06/12 11:28:49;;;;;;;4.97;4.50;;;22.80;60.30;;;;;;5011876;28;20724;-65
2023/06/12 11:31:15;;;;;;;4.55;4.15;;;22.80;60.10;;;;;;5029900;28;20195;-65
2023/06/12 11:33:41;;;;;;;4.65;4.35;;;22.80;60.70;;;;;;5004606;28;20237;-65
2023/06/12 11:36:07;;;;;;;4.88;4.50;;;22.80;60.30;;;;;;5014520;28;20202;-65
2023/06/12 11:38:32;;;;;;;4.95;4.60;;;22.90;60.70;;;;;;5024590;28;20215;-65
2023/06/12 11:40:58;;;;;;;4.68;4.28;;;22.80;60.50;;;;;;5024588;28;20198;-65
2023/06/12 11:43:26;;;;;;;4.63;4.32;;;22.80;60.40;;;;;;5030866;28;20241;-66
2023/06/12 11:45:56;;;;;;;4.97;4.55;;;22.90;60.50;;;;;;5027701;28;20252;-65
2023/06/12 11:48:21;;;;;;;4.95;4.22;;;22.80;60.40;;;;;;5028045;28;20183;-65
2023/06/12 11:50:51;;;;;;;5.22;4.82;;;22.90;60.40;;;;;;5028738;28;20188;-65
2023/06/12 11:53:20;;;;;;;4.93;4.53;;;22.80;60.30;;;;;;5020138;28;20190;-66
2023/06/12 11:55:57;;;;;;;4.78;4.38;;;22.90;60.80;;;;;;5020103;28;20215;-65
2023/06/12 11:58:40;;;;;;;5.15;4.75;;;22.90;60.70;;;;;;5011772;28;20584;-65
2023/06/12 12:01:23;;;;;;;4.50;4.10;;;22.80;60.20;;;;;;5027674;28;20222;-65
2023/06/12 12:03:49;;;;;;;5.10;4.60;;;22.90;60.10;;;;;;5024185;28;20187;-65
2023/06/12 12:06:16;;;;;;;5.22;4.78;;;22.90;60.00;;;;;;4999792;28;20219;-65
2023/06/12 12:08:43;;;;;;;4.43;4.13;;;22.90;60.20;;;;;;5027774;28;20587;-65
2023/06/12 12:11:21;;;;;;;5.07;4.57;;;22.90;60.10;;;;;;5017630;28;20183;-65
2023/06/12 12:13:53;;;;;;;5.05;4.55;;;22.80;60.00;;;;;;5036712;28;20218;-65
2023/06/12 12:16:26;;;;;;;6.20;4.40;;;22.90;60.50;;;;;;5019824;28;20199;-65
2023/06/12 12:18:53;;;;;;;6.10;5.03;;;22.80;60.60;;;;;;5027641;28;20234;-65
2023/06/12 12:21:19;;;;;;;5.00;4.60;;;22.80;60.40;;;;;;5018529;28;20183;-65
2023/06/12 12:23:45;;;;;;;5.05;4.60;;;22.90;60.40;;;;;;5028388;28;20197;-65
2023/06/12 12:26:13;;;;;;;5.15;4.75;;;22.90;60.30;;;;;;5026866;28;20243;-64
2023/06/12 12:28:39;;;;;;;4.07;3.78;;;22.80;60.10;;;;;;5012677;28;20216;-65
2023/06/12 12:31:05;;;;;;;4.93;4.45;;;22.90;60.00;;;;;;5024623;28;20194;-65
2023/06/12 12:33:31;;;;;;;5.05;4.53;;;22.90;60.40;;;;;;5044927;28;20267;-65
2023/06/12 12:36:01;;;;;;;4.53;4.13;;;22.80;60.00;;;;;;5018816;28;20235;-65
2023/06/12 12:38:26;;;;;;;5.00;4.55;;;22.90;60.00;;;;;;5007008;28;20223;-65
2023/06/12 12:40:53;;;;;;;4.97;4.40;;;22.90;60.10;;;;;;5028622;28;20179;-66
2023/06/12 12:43:18;;;;;;;5.05;4.65;;;22.90;60.10;;;;;;5016600;28;20317;-65
2023/06/12 12:45:44;;;;;;;4.22;3.92;;;22.90;59.90;;;;;;5014344;28;20282;-65
2023/06/12 12:48:10;;;;;;;5.43;4.45;;;22.90;59.90;;;;;;5025764;28;20248;-63
2023/06/12 12:50:36;;;;;;;4.60;4.20;;;22.90;60.00;;;;;;5025180;28;20188;-65
2023/06/12 12:53:02;;;;;;;5.20;4.80;;;22.90;60.10;;;;;;5023945;28;20212;-64
2023/06/12 12:55:32;;;;;;;7.32;4.60;;;22.90;60.20;;;;;;5022231;28;20192;-65